| time (UTC) | temp F | wind direction | speed MPH | gust MPH | rain 1hr in | rain 24hr in | rain mn in | humidity % | barometer mb |
| 20260906213032 | 89 | 232 | 3.0 | 9.0 | 0.00 | 0.00 | 0.00 | 32 | 1021.5 |
| 20260906211530 | 89 | 103 | 2.0 | 10.0 | 0.00 | 0.00 | 0.00 | 33 | 1021.5 |
| 20260906210031 | 89 | 186 | 2.0 | 11.0 | 0.00 | 0.00 | 0.00 | 36 | 1021.7 |
| 20260906204533 | 89 | 258 | 2.0 | 7.0 | 0.00 | 0.00 | 0.00 | 35 | 1021.9 |
| 20260906203031 | 89 | 119 | 1.0 | 10.0 | 0.00 | 0.00 | 0.00 | 36 | 1022.1 |
| 20260906201529 | 89 | 138 | 2.0 | 10.0 | 0.00 | 0.00 | 0.00 | 35 | 1022.2 |
| 20260906200029 | 88 | 289 | 2.0 | 10.0 | 0.00 | 0.00 | 0.00 | 37 | 1022.1 |
| 20260906194531 | 89 | 313 | 1.0 | 6.0 | 0.00 | 0.00 | 0.00 | 37 | 1022.2 |
| 20260906193038 | 89 | 42 | 2.0 | 6.0 | 0.00 | 0.00 | 0.00 | 35 | 1022.4 |
| 20260906191531 | 89 | 239 | 2.0 | 5.0 | 0.00 | 0.00 | 0.00 | 34 | 1022.4 |
| 20260906190031 | 88 | 60 | 1.0 | 6.0 | 0.00 | 0.00 | 0.00 | 34 | 1022.8 |
| 20260906184534 | 87 | 221 | 1.0 | 7.0 | 0.00 | 0.00 | 0.00 | 37 | 1023.0 |
| 20260906183037 | 87 | 256 | 2.0 | 9.0 | 0.00 | 0.00 | 0.00 | 35 | 1023.3 |
| 20260906181540 | 86 | 204 | 1.0 | 7.0 | 0.00 | 0.00 | 0.00 | 35 | 1023.5 |
| 20260906180032 | 85 | 286 | 0.0 | 6.0 | 0.00 | 0.00 | 0.00 | 38 | 1024.0 |
| 20260906174535 | 84 | 225 | 1.0 | 3.0 | 0.00 | 0.00 | 0.00 | 41 | 1024.1 |
| 20260906173032 | 84 | 252 | 2.0 | 5.0 | 0.00 | 0.00 | 0.00 | 36 | 1024.3 |
| 20260906171530 | 84 | 227 | 1.0 | 7.0 | 0.00 | 0.00 | 0.00 | 39 | 1024.3 |
| 20260906170027 | 83 | 240 | 1.0 | 6.0 | 0.00 | 0.00 | 0.00 | 37 | 1024.3 |
| 20260906164536 | 81 | 84 | 0.0 | 5.0 | 0.00 | 0.00 | 0.00 | 40 | 1024.3 |
| 20260906163031 | 78 | 29 | 1.0 | 5.0 | 0.00 | 0.00 | 0.00 | 41 | 1024.4 |
| 20260906161530 | 76 | 212 | 1.0 | 4.0 | 0.00 | 0.00 | 0.00 | 43 | 1024.3 |
| 20260906160032 | 75 | 163 | 0.0 | 4.0 | 0.00 | 0.00 | 0.00 | 45 | 1024.4 |
| 20260906154531 | 72 | 225 | 0.0 | 5.0 | 0.00 | 0.00 | 0.00 | 51 | 1024.3 |
| 20260906153034 | 70 | 360 | 0.0 | 0.0 | 0.00 | 0.00 | 0.00 | 55 | 1024.2 |
| 20260906151529 | 68 | 360 | 0.0 | 0.0 | 0.00 | 0.00 | 0.00 | 56 | 1024.2 |
| 20260906150033 | 67 | 360 | 0.0 | 0.0 | 0.00 | 0.00 | 0.00 | 55 | 1024.1 |
| 20260906144533 | 66 | 360 | 0.0 | 3.0 | 0.00 | 0.00 | 0.00 | 59 | 1024.1 |
| 20260906143032 | 65 | 329 | 0.0 | 2.0 | 0.00 | 0.00 | 0.00 | 59 | 1024.0 |
| 20260906141531 | 64 | 5 | 1.0 | 4.0 | 0.00 | 0.00 | 0.00 | 60 | 1023.9 |
| 20260906140033 | 63 | 360 | 0.0 | 1.0 | 0.00 | 0.00 | 0.00 | 61 | 1023.9 |
| 20260906134530 | 62 | 346 | 0.0 | 4.0 | 0.00 | 0.00 | 0.00 | 62 | 1023.9 |
| 20260906133041 | 61 | 26 | 1.0 | 4.0 | 0.00 | 0.00 | 0.00 | 62 | 1023.8 |
| 20260906131530 | 60 | 102 | 0.0 | 0.0 | 0.00 | 0.00 | 0.00 | 64 | 1023.5 |
| 20260906130029 | 60 | 102 | 0.0 | 0.0 | 0.00 | 0.00 | 0.00 | 63 | 1023.5 |
| 20260906124537 | 60 | 102 | 0.0 | 0.0 | 0.00 | 0.00 | 0.00 | 62 | 1023.5 |
| 20260906123036 | 61 | 102 | 0.0 | 0.0 | 0.00 | 0.00 | 0.00 | 62 | 1023.3 |
| 20260906121533 | 61 | 102 | 0.0 | 0.0 | 0.00 | 0.00 | 0.00 | 62 | 1023.2 |
| 20260906120031 | 61 | 102 | 0.0 | 0.0 | 0.00 | 0.00 | 0.00 | 61 | 1023.2 |
| 20260906114531 | 61 | 41 | 0.0 | 0.0 | 0.00 | 0.00 | 0.00 | 61 | 1023.2 |
| 20260906113036 | 61 | 41 | 0.0 | 0.0 | 0.00 | 0.00 | 0.00 | 62 | 1023.1 |
| 20260906111531 | 62 | 41 | 0.0 | 0.0 | 0.00 | 0.00 | 0.00 | 63 | 1023.0 |
| 20260906110030 | 62 | 41 | 0.0 | 0.0 | 0.00 | 0.00 | 0.00 | 65 | 1022.8 |
| 20260906104527 | 62 | 41 | 0.0 | 0.0 | 0.00 | 0.00 | 0.00 | 64 | 1022.8 |
| 20260906103042 | 63 | 41 | 0.0 | 0.0 | 0.00 | 0.00 | 0.00 | 64 | 1022.9 |
| 20260906101533 | 63 | 136 | 0.0 | 0.0 | 0.00 | 0.00 | 0.00 | 65 | 1022.9 |
| 20260906100034 | 63 | 136 | 0.0 | 0.0 | 0.00 | 0.00 | 0.00 | 65 | 1023.3 |
| 20260906094532 | 63 | 136 | 0.0 | 3.0 | 0.00 | 0.00 | 0.00 | 66 | 1023.4 |
| 20260906093029 | 63 | 355 | 0.0 | 0.0 | 0.00 | 0.00 | 0.00 | 67 | 1023.2 |
| 20260906091530 | 63 | 355 | 0.0 | 2.0 | 0.00 | 0.00 | 0.00 | 68 | 1023.1 |
| 20260906090030 | 63 | 34 | 0.0 | 3.0 | 0.00 | 0.00 | 0.00 | 69 | 1023.0 |
| 20260906084532 | 63 | 26 | 0.0 | 2.0 | 0.00 | 0.00 | 0.00 | 70 | 1023.0 |
| 20260906083032 | 64 | 26 | 0.0 | 0.0 | 0.00 | 0.00 | 0.00 | 70 | 1023.0 |
| 20260906081531 | 64 | 26 | 0.0 | 0.0 | 0.00 | 0.00 | 0.00 | 70 | 1023.0 |
| 20260906080033 | 64 | 26 | 0.0 | 4.0 | 0.00 | 0.00 | 0.00 | 70 | 1023.1 |
| 20260906074533 | 64 | 5 | 0.0 | 2.0 | 0.00 | 0.00 | 0.00 | 70 | 1023.4 |
| 20260906073031 | 64 | 17 | 0.0 | 2.0 | 0.00 | 0.00 | 0.00 | 70 | 1023.4 |
| 20260906071530 | 64 | 17 | 1.0 | 3.0 | 0.00 | 0.00 | 0.00 | 70 | 1023.4 |
| 20260906070031 | 65 | 5 | 0.0 | 3.0 | 0.00 | 0.00 | 0.00 | 68 | 1023.6 |
| 20260906064535 | 65 | 108 | 0.0 | 0.0 | 0.00 | 0.00 | 0.00 | 67 | 1023.7 |
| 20260906063031 | 65 | 108 | 0.0 | 0.0 | 0.00 | 0.00 | 0.00 | 67 | 1023.6 |
| 20260906061532 | 65 | 108 | 0.0 | 1.0 | 0.00 | 0.00 | 0.00 | 67 | 1023.4 |
| 20260906060031 | 66 | 108 | 0.0 | 1.0 | 0.00 | 0.00 | 0.00 | 67 | 1023.4 |
| 20260906054537 | 66 | 108 | 0.0 | 0.0 | 0.00 | 0.00 | 0.00 | 66 | 1023.4 |
| 20260906053029 | 67 | 108 | 0.0 | 1.0 | 0.00 | 0.00 | 0.00 | 65 | 1023.2 |
| 20260906051531 | 68 | 108 | 0.0 | 1.0 | 0.00 | 0.00 | 0.00 | 64 | 1023.4 |
| 20260906050033 | 68 | 108 | 0.0 | 0.0 | 0.00 | 0.00 | 0.00 | 63 | 1023.4 |
| 20260906044533 | 69 | 108 | 0.0 | 0.0 | 0.00 | 0.00 | 0.00 | 63 | 1023.5 |
| 20260906043033 | 69 | 108 | 0.0 | 0.0 | 0.00 | 0.00 | 0.00 | 62 | 1023.6 |
| 20260906041532 | 70 | 108 | 0.0 | 1.0 | 0.00 | 0.00 | 0.00 | 61 | 1023.6 |
| 20260906040030 | 70 | 108 | 0.0 | 1.0 | 0.00 | 0.00 | 0.00 | 60 | 1023.7 |
| 20260906034531 | 71 | 55 | 0.0 | 1.0 | 0.00 | 0.00 | 0.00 | 59 | 1023.9 |
| 20260906033031 | 72 | 55 | 0.0 | 1.0 | 0.00 | 0.00 | 0.00 | 59 | 1023.7 |
| 20260906031529 | 73 | 55 | 0.0 | 1.0 | 0.00 | 0.00 | 0.00 | 57 | 1023.4 |
| 20260906030031 | 73 | 71 | 0.0 | 5.0 | 0.00 | 0.00 | 0.00 | 57 | 1023.1 |
| 20260906024530 | 74 | 145 | 0.0 | 2.0 | 0.00 | 0.00 | 0.00 | 56 | 1022.9 |
| 20260906023028 | 75 | 118 | 0.0 | 7.0 | 0.00 | 0.00 | 0.00 | 56 | 1022.7 |
| 20260906021539 | 75 | 284 | 1.0 | 6.0 | 0.00 | 0.00 | 0.00 | 50 | 1022.6 |
| 20260906020031 | 77 | 31 | 0.0 | 2.0 | 0.00 | 0.00 | 0.00 | 35 | 1022.0 |
| 20260906014528 | 78 | 31 | 0.0 | 1.0 | 0.00 | 0.00 | 0.00 | 35 | 1021.8 |
| 20260906013039 | 78 | 31 | 0.0 | 1.0 | 0.00 | 0.00 | 0.00 | 34 | 1021.8 |
| 20260906011533 | 79 | 24 | 2.0 | 5.0 | 0.00 | 0.00 | 0.00 | 33 | 1021.8 |
| 20260906010031 | 80 | 355 | 1.0 | 6.0 | 0.00 | 0.00 | 0.00 | 33 | 1021.9 |
| 20260906004527 | 81 | 15 | 2.0 | 8.0 | 0.00 | 0.00 | 0.00 | 32 | 1022.1 |
| 20260906003029 | 82 | 334 | 2.0 | 6.0 | 0.00 | 0.00 | 0.00 | 32 | 1022.1 |
| 20260906001528 | 82 | 34 | 0.0 | 2.0 | 0.00 | 0.00 | 0.00 | 32 | 1021.9 |
| 20260906000030 | 82 | 348 | 0.0 | 2.0 | 0.00 | 0.00 | 0.00 | 32 | 1021.9 |
| 20260905234531 | 82 | 348 | 0.0 | 1.0 | 0.00 | 0.00 | 0.00 | 32 | 1021.8 |
| 20260905233029 | 83 | 348 | 0.0 | 3.0 | 0.00 | 0.00 | 0.00 | 30 | 1021.9 |
| 20260905231530 | 84 | 35 | 0.0 | 3.0 | 0.00 | 0.00 | 0.00 | 29 | 1021.8 |
| 20260905230030 | 84 | 19 | 0.0 | 4.0 | 0.00 | 0.00 | 0.00 | 30 | 1021.7 |
| 20260905224532 | 84 | 355 | 1.0 | 7.0 | 0.00 | 0.00 | 0.00 | 28 | 1021.9 |
| 20260905223031 | 83 | 25 | 2.0 | 6.0 | 0.00 | 0.00 | 0.00 | 31 | 1021.9 |
| 20260905221528 | 82 | 19 | 2.0 | 5.0 | 0.00 | 0.00 | 0.00 | 31 | 1022.3 |
| 20260905220030 | 82 | 293 | 0.0 | 2.0 | 0.00 | 0.00 | 0.00 | 32 | 1022.3 |
| 20260905214533 | 81 | 355 | 2.0 | 6.0 | 0.00 | 0.00 | 0.00 | 34 | 1022.3 |